EZY64LM EGNT-EGKK
Flight info
| Callsign | EZY64LM |
|---|---|
| Flight time | 1h 5m |
| Altitude | 27000 |
| Route | GIRLI P18 GASKO P16 RIBEL UP16 CROFT DCT KEPAD L151 DISIT |
| Aircraft | A320/M-SDE3FGHIRWY/LB1 |
Departure
| Time | 2026-05-05 07:10 |
|---|---|
| Airport | Newcastle International Airport (EGNT) |
Arrival
| Time | 2026-05-05 08:15 |
|---|---|
| Airport | London Gatwick Airport (EGKK) |
| Time | Latitude | Longitude | Altitude | Speed | Heading |
|---|---|---|---|---|---|
| 2026-05-05 06:54 | 55.03667 | -1.70778 | 267 ft | 0 kts | 4° |
| 2026-05-05 06:57 | 55.03665 | -1.70779 | 267 ft | 2 kts | 4° |
| 2026-05-05 06:57 | 55.03643 | -1.70782 | 267 ft | 3 kts | 4° |
| 2026-05-05 06:58 | 55.03624 | -1.70785 | 267 ft | 3 kts | 17° |
| 2026-05-05 06:58 | 55.03606 | -1.70803 | 267 ft | 3 kts | 58° |
| 2026-05-05 06:58 | 55.03596 | -1.70836 | 267 ft | 3 kts | 40° |
| 2026-05-05 06:58 | 55.03583 | -1.70844 | 267 ft | 3 kts | 4° |
| 2026-05-05 06:59 | 55.03577 | -1.70845 | 267 ft | 0 kts | 4° |
| 2026-05-05 07:01 | 55.03598 | -1.70820 | 267 ft | 7 kts | 59° |
| 2026-05-05 07:01 | 55.03594 | -1.70704 | 267 ft | 12 kts | 95° |
| 2026-05-05 07:02 | 55.03592 | -1.70565 | 267 ft | 11 kts | 85° |
| 2026-05-05 07:02 | 55.03620 | -1.70460 | 267 ft | 9 kts | 38° |
| 2026-05-05 07:02 | 55.03676 | -1.70438 | 267 ft | 8 kts | 5° |
| 2026-05-05 07:02 | 55.03729 | -1.70431 | 267 ft | 10 kts | 4° |
| 2026-05-05 07:03 | 55.03780 | -1.70332 | 267 ft | 14 kts | 89° |
| 2026-05-05 07:03 | 55.03774 | -1.70151 | 263 ft | 15 kts | 93° |
| 2026-05-05 07:03 | 55.03775 | -1.69965 | 260 ft | 15 kts | 86° |
| 2026-05-05 07:03 | 55.03789 | -1.69783 | 259 ft | 15 kts | 79° |
| 2026-05-05 07:04 | 55.03814 | -1.69610 | 257 ft | 14 kts | 73° |
| 2026-05-05 07:04 | 55.03849 | -1.69449 | 255 ft | 14 kts | 65° |
| 2026-05-05 07:04 | 55.03889 | -1.69299 | 254 ft | 13 kts | 65° |
| 2026-05-05 07:04 | 55.03928 | -1.69155 | 253 ft | 13 kts | 65° |
| 2026-05-05 07:05 | 55.03965 | -1.69017 | 252 ft | 12 kts | 65° |
| 2026-05-05 07:05 | 55.03999 | -1.68886 | 251 ft | 12 kts | 65° |
| 2026-05-05 07:05 | 55.04032 | -1.68761 | 250 ft | 11 kts | 66° |
| 2026-05-05 07:05 | 55.04063 | -1.68644 | 249 ft | 10 kts | 65° |
| 2026-05-05 07:06 | 55.04093 | -1.68533 | 249 ft | 11 kts | 65° |
| 2026-05-05 07:06 | 55.04128 | -1.68399 | 248 ft | 13 kts | 65° |
| 2026-05-05 07:06 | 55.04163 | -1.68268 | 248 ft | 11 kts | 65° |
| 2026-05-05 07:06 | 55.04195 | -1.68149 | 247 ft | 10 kts | 65° |
| 2026-05-05 07:07 | 55.04223 | -1.68043 | 247 ft | 10 kts | 65° |
| 2026-05-05 07:07 | 55.04246 | -1.67957 | 247 ft | 12 kts | 65° |
| 2026-05-05 07:07 | 55.04253 | -1.67930 | 247 ft | 12 kts | 65° |
| 2026-05-05 07:08 | 55.04287 | -1.67803 | 246 ft | 11 kts | 65° |
| 2026-05-05 07:08 | 55.04320 | -1.67677 | 244 ft | 11 kts | 65° |
| 2026-05-05 07:08 | 55.04332 | -1.67542 | 242 ft | 12 kts | 94° |
| 2026-05-05 07:08 | 55.04327 | -1.67449 | 241 ft | 12 kts | 101° |
| 2026-05-05 07:09 | 55.04272 | -1.67368 | 241 ft | 10 kts | 167° |
| 2026-05-05 07:09 | 55.04216 | -1.67391 | 242 ft | 7 kts | 232° |
| 2026-05-05 07:09 | 55.04186 | -1.67498 | 243 ft | 20 kts | 246° |
| 2026-05-05 07:09 | 55.04027 | -1.68105 | 248 ft | 93 kts | 245° |
| 2026-05-05 07:10 | 55.03666 | -1.69463 | 259 ft | 151 kts | 245° |
| 2026-05-05 07:10 | 55.03230 | -1.71218 | 874 ft | 153 kts | 248° |
| 2026-05-05 07:10 | 55.03214 | -1.71286 | 912 ft | 153 kts | 248° |
| 2026-05-05 07:11 | 55.03190 | -1.71383 | 964 ft | 152 kts | 249° |
| 2026-05-05 07:11 | 55.02795 | -1.73105 | 1745 ft | 159 kts | 250° |
| 2026-05-05 07:11 | 55.02272 | -1.74959 | 2221 ft | 182 kts | 238° |
| 2026-05-05 07:12 | 55.01183 | -1.76245 | 2537 ft | 206 kts | 192° |
| 2026-05-05 07:12 | 54.99678 | -1.76568 | 2847 ft | 230 kts | 186° |
| 2026-05-05 07:12 | 54.98033 | -1.77198 | 3260 ft | 255 kts | 198° |
| 2026-05-05 07:12 | 54.96321 | -1.78285 | 3919 ft | 268 kts | 202° |
| 2026-05-05 07:13 | 54.94584 | -1.79543 | 4816 ft | 273 kts | 204° |
| 2026-05-05 07:13 | 54.92815 | -1.80848 | 5737 ft | 278 kts | 204° |
| 2026-05-05 07:13 | 54.91031 | -1.82148 | 6713 ft | 278 kts | 204° |
| 2026-05-05 07:13 | 54.89233 | -1.83432 | 7562 ft | 282 kts | 205° |
| 2026-05-05 07:14 | 54.87415 | -1.84705 | 8349 ft | 282 kts | 204° |
| 2026-05-05 07:14 | 54.85576 | -1.85935 | 9276 ft | 285 kts | 199° |
| 2026-05-05 07:14 | 54.83629 | -1.86746 | 10144 ft | 290 kts | 193° |
| 2026-05-05 07:14 | 54.81567 | -1.87385 | 10461 ft | 313 kts | 192° |
| 2026-05-05 07:15 | 54.79348 | -1.88047 | 10795 ft | 332 kts | 192° |
| 2026-05-05 07:15 | 54.77046 | -1.88730 | 11459 ft | 339 kts | 192° |
| 2026-05-05 07:15 | 54.74708 | -1.89417 | 12199 ft | 343 kts | 192° |
| 2026-05-05 07:15 | 54.72338 | -1.90108 | 12936 ft | 347 kts | 192° |
| 2026-05-05 07:16 | 54.69951 | -1.90814 | 13680 ft | 350 kts | 192° |
| 2026-05-05 07:16 | 54.67540 | -1.91527 | 14346 ft | 353 kts | 192° |
| 2026-05-05 07:16 | 54.65103 | -1.92246 | 14847 ft | 357 kts | 192° |
| 2026-05-05 07:16 | 54.62657 | -1.92963 | 14998 ft | 357 kts | 192° |
| 2026-05-05 07:17 | 54.60211 | -1.93678 | 15033 ft | 356 kts | 192° |
| 2026-05-05 07:17 | 54.57770 | -1.94389 | 15035 ft | 356 kts | 192° |
| 2026-05-05 07:17 | 54.55327 | -1.95101 | 15034 ft | 356 kts | 192° |
| 2026-05-05 07:17 | 54.52887 | -1.95811 | 15038 ft | 356 kts | 192° |
| 2026-05-05 07:18 | 54.50447 | -1.96521 | 15038 ft | 356 kts | 192° |
| 2026-05-05 07:18 | 54.48035 | -1.97221 | 15027 ft | 356 kts | 192° |
| 2026-05-05 07:18 | 54.45598 | -1.97934 | 15038 ft | 355 kts | 192° |
| 2026-05-05 07:18 | 54.43161 | -1.98651 | 15038 ft | 355 kts | 192° |
| 2026-05-05 07:19 | 54.40725 | -1.99368 | 15037 ft | 355 kts | 192° |
| 2026-05-05 07:19 | 54.38287 | -2.00083 | 15038 ft | 355 kts | 192° |
| 2026-05-05 07:19 | 54.35853 | -2.00798 | 15038 ft | 355 kts | 192° |
| 2026-05-05 07:19 | 54.33419 | -2.01512 | 15037 ft | 355 kts | 192° |
| 2026-05-05 07:20 | 54.30984 | -2.02227 | 15039 ft | 355 kts | 192° |
| 2026-05-05 07:20 | 54.28546 | -2.02943 | 15038 ft | 355 kts | 192° |
| 2026-05-05 07:20 | 54.26147 | -2.03889 | 15035 ft | 353 kts | 201° |
| 2026-05-05 07:20 | 54.23864 | -2.05392 | 15038 ft | 351 kts | 209° |
| 2026-05-05 07:21 | 54.21781 | -2.07529 | 15028 ft | 349 kts | 214° |
| 2026-05-05 07:21 | 54.19726 | -2.09721 | 15037 ft | 348 kts | 214° |
| 2026-05-05 07:21 | 54.17670 | -2.11907 | 15044 ft | 348 kts | 214° |
| 2026-05-05 07:21 | 54.15610 | -2.14093 | 15043 ft | 349 kts | 214° |
| 2026-05-05 07:22 | 54.13547 | -2.16283 | 15044 ft | 349 kts | 214° |
| 2026-05-05 07:22 | 54.11487 | -2.18474 | 15042 ft | 349 kts | 214° |
| 2026-05-05 07:22 | 54.09428 | -2.20669 | 15043 ft | 349 kts | 214° |
| 2026-05-05 07:22 | 54.07369 | -2.22862 | 15043 ft | 349 kts | 214° |
| 2026-05-05 07:23 | 54.05306 | -2.25053 | 15044 ft | 349 kts | 214° |
| 2026-05-05 07:23 | 54.03244 | -2.27240 | 15044 ft | 349 kts | 214° |
| 2026-05-05 07:23 | 54.01123 | -2.29254 | 15043 ft | 351 kts | 206° |
| 2026-05-05 07:23 | 53.98839 | -2.30753 | 15043 ft | 352 kts | 203° |
| 2026-05-05 07:24 | 53.96546 | -2.32221 | 15040 ft | 352 kts | 203° |
| 2026-05-05 07:24 | 53.94259 | -2.33691 | 15049 ft | 351 kts | 203° |
| 2026-05-05 07:24 | 53.91977 | -2.35162 | 15049 ft | 351 kts | 203° |
| 2026-05-05 07:24 | 53.89696 | -2.36636 | 15049 ft | 351 kts | 203° |
| 2026-05-05 07:25 | 53.87414 | -2.38110 | 15046 ft | 351 kts | 203° |
| 2026-05-05 07:25 | 53.85132 | -2.39580 | 15048 ft | 351 kts | 203° |
| 2026-05-05 07:25 | 53.82848 | -2.41042 | 14708 ft | 351 kts | 202° |
| 2026-05-05 07:25 | 53.80564 | -2.42503 | 14834 ft | 351 kts | 202° |
| 2026-05-05 07:26 | 53.78281 | -2.43959 | 14994 ft | 351 kts | 203° |
| 2026-05-05 07:26 | 53.75995 | -2.45417 | 15060 ft | 352 kts | 203° |
| 2026-05-05 07:26 | 53.73693 | -2.46884 | 15580 ft | 355 kts | 203° |
| 2026-05-05 07:26 | 53.71375 | -2.48360 | 16265 ft | 357 kts | 203° |
| 2026-05-05 07:27 | 53.69039 | -2.49845 | 16902 ft | 360 kts | 202° |
| 2026-05-05 07:27 | 53.66680 | -2.51341 | 17524 ft | 363 kts | 202° |
| 2026-05-05 07:27 | 53.64292 | -2.52790 | 18113 ft | 367 kts | 198° |
| 2026-05-05 07:27 | 53.61767 | -2.53612 | 18680 ft | 373 kts | 187° |
| 2026-05-05 07:28 | 53.59158 | -2.53634 | 19255 ft | 378 kts | 179° |
| 2026-05-05 07:28 | 53.56524 | -2.53422 | 19814 ft | 380 kts | 179° |
| 2026-05-05 07:28 | 53.53867 | -2.53213 | 20355 ft | 383 kts | 179° |
| 2026-05-05 07:28 | 53.51234 | -2.53014 | 20868 ft | 385 kts | 179° |
| 2026-05-05 07:29 | 53.48546 | -2.52816 | 21373 ft | 388 kts | 179° |
| 2026-05-05 07:29 | 53.45839 | -2.52618 | 21869 ft | 390 kts | 179° |
| 2026-05-05 07:29 | 53.43120 | -2.52422 | 22362 ft | 393 kts | 179° |
| 2026-05-05 07:29 | 53.40378 | -2.52224 | 22837 ft | 395 kts | 179° |
| 2026-05-05 07:30 | 53.37624 | -2.52026 | 23299 ft | 398 kts | 179° |
| 2026-05-05 07:30 | 53.32065 | -2.51620 | 24179 ft | 402 kts | 179° |
| 2026-05-05 07:30 | 53.29262 | -2.51415 | 24583 ft | 404 kts | 179° |
| 2026-05-05 07:31 | 53.26444 | -2.51206 | 24995 ft | 407 kts | 179° |
| 2026-05-05 07:31 | 53.23608 | -2.50995 | 25401 ft | 409 kts | 179° |
| 2026-05-05 07:31 | 53.20759 | -2.50787 | 25791 ft | 411 kts | 179° |
| 2026-05-05 07:31 | 53.17893 | -2.50575 | 26182 ft | 413 kts | 179° |
| 2026-05-05 07:32 | 53.15017 | -2.50363 | 26547 ft | 415 kts | 179° |
| 2026-05-05 07:32 | 53.12124 | -2.50152 | 26902 ft | 417 kts | 179° |
| 2026-05-05 07:32 | 53.09218 | -2.49939 | 27031 ft | 416 kts | 179° |
| 2026-05-05 07:32 | 53.06377 | -2.49730 | 27054 ft | 404 kts | 179° |
| 2026-05-05 07:33 | 53.03588 | -2.49530 | 27053 ft | 400 kts | 179° |
| 2026-05-05 07:33 | 53.00809 | -2.49332 | 27054 ft | 399 kts | 179° |
| 2026-05-05 07:33 | 52.98046 | -2.49132 | 27054 ft | 398 kts | 179° |
| 2026-05-05 07:33 | 52.95272 | -2.48924 | 27054 ft | 398 kts | 179° |
| 2026-05-05 07:34 | 52.92509 | -2.48718 | 27053 ft | 397 kts | 179° |
| 2026-05-05 07:34 | 52.89745 | -2.48516 | 27054 ft | 397 kts | 179° |
| 2026-05-05 07:34 | 52.86983 | -2.48322 | 27054 ft | 397 kts | 179° |
| 2026-05-05 07:34 | 52.84227 | -2.48075 | 27053 ft | 397 kts | 175° |
| 2026-05-05 07:35 | 52.81521 | -2.47172 | 27052 ft | 399 kts | 164° |
| 2026-05-05 07:35 | 52.78945 | -2.45456 | 27050 ft | 400 kts | 154° |
| 2026-05-05 07:35 | 52.76575 | -2.43032 | 27046 ft | 401 kts | 148° |
| 2026-05-05 07:35 | 52.74259 | -2.40456 | 27043 ft | 401 kts | 148° |
| 2026-05-05 07:36 | 52.71938 | -2.37892 | 27042 ft | 401 kts | 148° |
| 2026-05-05 07:36 | 52.69613 | -2.35340 | 27043 ft | 402 kts | 148° |
| 2026-05-05 07:36 | 52.67284 | -2.32788 | 27045 ft | 402 kts | 148° |
| 2026-05-05 07:36 | 52.64962 | -2.30242 | 27046 ft | 401 kts | 148° |
| 2026-05-05 07:37 | 52.62636 | -2.27692 | 27047 ft | 401 kts | 148° |
| 2026-05-05 07:37 | 52.60317 | -2.25149 | 27046 ft | 401 kts | 148° |
| 2026-05-05 07:37 | 52.57993 | -2.22604 | 27047 ft | 401 kts | 148° |
| 2026-05-05 07:37 | 52.55672 | -2.20066 | 27045 ft | 401 kts | 148° |
| 2026-05-05 07:38 | 52.53350 | -2.17529 | 27043 ft | 401 kts | 148° |
| 2026-05-05 07:38 | 52.51028 | -2.14998 | 27042 ft | 400 kts | 148° |
| 2026-05-05 07:38 | 52.48708 | -2.12476 | 27041 ft | 400 kts | 148° |
| 2026-05-05 07:38 | 52.46385 | -2.09955 | 27041 ft | 400 kts | 148° |
| 2026-05-05 07:39 | 52.44067 | -2.07442 | 27040 ft | 400 kts | 148° |
| 2026-05-05 07:39 | 52.41765 | -2.04947 | 26797 ft | 393 kts | 148° |
| 2026-05-05 07:39 | 52.39503 | -2.02491 | 26335 ft | 388 kts | 148° |
| 2026-05-05 07:39 | 52.37268 | -2.00066 | 25871 ft | 383 kts | 148° |
| 2026-05-05 07:40 | 52.35057 | -1.97674 | 25417 ft | 379 kts | 148° |
| 2026-05-05 07:40 | 52.32864 | -1.95309 | 24965 ft | 375 kts | 148° |
| 2026-05-05 07:40 | 52.30699 | -1.92984 | 24513 ft | 371 kts | 148° |
| 2026-05-05 07:40 | 52.28551 | -1.90679 | 24062 ft | 367 kts | 148° |
| 2026-05-05 07:41 | 52.26426 | -1.88397 | 23605 ft | 364 kts | 148° |
| 2026-05-05 07:41 | 52.24314 | -1.86133 | 23144 ft | 361 kts | 148° |
| 2026-05-05 07:41 | 52.22219 | -1.83886 | 22682 ft | 360 kts | 148° |
| 2026-05-05 07:41 | 52.20138 | -1.81650 | 22220 ft | 357 kts | 148° |
| 2026-05-05 07:42 | 52.18068 | -1.79426 | 21769 ft | 356 kts | 148° |
| 2026-05-05 07:42 | 52.16005 | -1.77213 | 21310 ft | 354 kts | 148° |
| 2026-05-05 07:42 | 52.13949 | -1.75016 | 20849 ft | 353 kts | 148° |
| 2026-05-05 07:42 | 52.11898 | -1.72833 | 20377 ft | 352 kts | 148° |
| 2026-05-05 07:43 | 52.09850 | -1.70657 | 19921 ft | 351 kts | 148° |
| 2026-05-05 07:43 | 52.07814 | -1.68490 | 19640 ft | 350 kts | 148° |
| 2026-05-05 07:43 | 52.05778 | -1.66322 | 19333 ft | 349 kts | 148° |
| 2026-05-05 07:43 | 52.03748 | -1.64165 | 19030 ft | 348 kts | 148° |
| 2026-05-05 07:44 | 52.01725 | -1.62020 | 18725 ft | 347 kts | 148° |
| 2026-05-05 07:44 | 51.99731 | -1.59911 | 18425 ft | 346 kts | 148° |
| 2026-05-05 07:44 | 51.97723 | -1.57787 | 18127 ft | 344 kts | 148° |
| 2026-05-05 07:44 | 51.95721 | -1.55673 | 17821 ft | 343 kts | 148° |
| 2026-05-05 07:45 | 51.93722 | -1.53569 | 17522 ft | 342 kts | 148° |
| 2026-05-05 07:45 | 51.91733 | -1.51476 | 17219 ft | 341 kts | 148° |
| 2026-05-05 07:45 | 51.89751 | -1.49389 | 16920 ft | 339 kts | 148° |
| 2026-05-05 07:45 | 51.87751 | -1.47276 | 16618 ft | 338 kts | 148° |
| 2026-05-05 07:46 | 51.85783 | -1.45199 | 16322 ft | 337 kts | 148° |
| 2026-05-05 07:46 | 51.83820 | -1.43134 | 16032 ft | 336 kts | 148° |
| 2026-05-05 07:46 | 51.81887 | -1.41103 | 15736 ft | 335 kts | 148° |
| 2026-05-05 07:46 | 51.79933 | -1.39054 | 15441 ft | 334 kts | 148° |
| 2026-05-05 07:47 | 51.77989 | -1.37019 | 15149 ft | 333 kts | 148° |
| 2026-05-05 07:47 | 51.76046 | -1.34989 | 15005 ft | 332 kts | 148° |
| 2026-05-05 07:47 | 51.74104 | -1.32960 | 14742 ft | 332 kts | 148° |
| 2026-05-05 07:47 | 51.72170 | -1.30943 | 14527 ft | 331 kts | 148° |
| 2026-05-05 07:48 | 51.70240 | -1.28931 | 14329 ft | 330 kts | 147° |
| 2026-05-05 07:48 | 51.68314 | -1.26925 | 14130 ft | 329 kts | 148° |
| 2026-05-05 07:48 | 51.66390 | -1.24923 | 13945 ft | 328 kts | 147° |
| 2026-05-05 07:48 | 51.64474 | -1.22931 | 13747 ft | 328 kts | 148° |
| 2026-05-05 07:49 | 51.62558 | -1.20942 | 13552 ft | 327 kts | 147° |
| 2026-05-05 07:49 | 51.60645 | -1.18955 | 13365 ft | 327 kts | 147° |
| 2026-05-05 07:49 | 51.58739 | -1.16978 | 13175 ft | 326 kts | 147° |
| 2026-05-05 07:49 | 51.56838 | -1.15008 | 12987 ft | 325 kts | 147° |
| 2026-05-05 07:50 | 51.54937 | -1.13044 | 12797 ft | 324 kts | 148° |
| 2026-05-05 07:50 | 51.53041 | -1.11091 | 12612 ft | 324 kts | 147° |
| 2026-05-05 07:50 | 51.51148 | -1.09141 | 12421 ft | 323 kts | 147° |
| 2026-05-05 07:50 | 51.49260 | -1.07195 | 12231 ft | 322 kts | 147° |
| 2026-05-05 07:51 | 51.47380 | -1.05258 | 12046 ft | 321 kts | 147° |
| 2026-05-05 07:51 | 51.45501 | -1.03322 | 11855 ft | 321 kts | 147° |
| 2026-05-05 07:51 | 51.43627 | -1.01392 | 11666 ft | 320 kts | 147° |
| 2026-05-05 07:51 | 51.41757 | -0.99468 | 11483 ft | 319 kts | 147° |
| 2026-05-05 07:52 | 51.39891 | -0.97550 | 11297 ft | 318 kts | 147° |
| 2026-05-05 07:52 | 51.38030 | -0.95642 | 11121 ft | 318 kts | 147° |
| 2026-05-05 07:52 | 51.36173 | -0.93741 | 10921 ft | 317 kts | 147° |
| 2026-05-05 07:52 | 51.34318 | -0.91847 | 10749 ft | 316 kts | 147° |
| 2026-05-05 07:53 | 51.32469 | -0.89960 | 10572 ft | 315 kts | 147° |
| 2026-05-05 07:53 | 51.30623 | -0.88074 | 10381 ft | 315 kts | 147° |
| 2026-05-05 07:53 | 51.28781 | -0.86193 | 10194 ft | 312 kts | 147° |
| 2026-05-05 07:53 | 51.26987 | -0.84364 | 10038 ft | 301 kts | 147° |
| 2026-05-05 07:54 | 51.25237 | -0.82584 | 9845 ft | 295 kts | 147° |
| 2026-05-05 07:54 | 51.23509 | -0.80826 | 9744 ft | 295 kts | 146° |
| 2026-05-05 07:54 | 51.22364 | -0.79662 | 9639 ft | 294 kts | 146° |
| 2026-05-05 07:54 | 51.20635 | -0.77909 | 9475 ft | 294 kts | 146° |
| 2026-05-05 07:55 | 51.18915 | -0.76162 | 9299 ft | 292 kts | 146° |
| 2026-05-05 07:55 | 51.17229 | -0.74452 | 9131 ft | 283 kts | 146° |
| 2026-05-05 07:55 | 51.15594 | -0.72800 | 8972 ft | 274 kts | 146° |
| 2026-05-05 07:55 | 51.14008 | -0.71202 | 8806 ft | 266 kts | 146° |
| 2026-05-05 07:56 | 51.12474 | -0.69659 | 8670 ft | 256 kts | 146° |
| 2026-05-05 07:56 | 51.10987 | -0.68163 | 8522 ft | 250 kts | 146° |
| 2026-05-05 07:56 | 51.09528 | -0.66689 | 8370 ft | 247 kts | 146° |
| 2026-05-05 07:56 | 51.08080 | -0.65226 | 8222 ft | 246 kts | 146° |
| 2026-05-05 07:57 | 51.06648 | -0.63730 | 8080 ft | 246 kts | 140° |
| 2026-05-05 07:57 | 51.05422 | -0.61866 | 7936 ft | 243 kts | 127° |
| 2026-05-05 07:57 | 51.04501 | -0.59642 | 7789 ft | 240 kts | 114° |
| 2026-05-05 07:57 | 51.03769 | -0.57261 | 7647 ft | 240 kts | 114° |
| 2026-05-05 07:58 | 51.03029 | -0.54890 | 7500 ft | 239 kts | 114° |
| 2026-05-05 07:58 | 51.02287 | -0.52531 | 7358 ft | 239 kts | 114° |
| 2026-05-05 07:58 | 51.01545 | -0.50173 | 7212 ft | 238 kts | 114° |
| 2026-05-05 07:58 | 51.00808 | -0.47825 | 7075 ft | 238 kts | 114° |
| 2026-05-05 07:59 | 51.00069 | -0.45478 | 6940 ft | 237 kts | 113° |
| 2026-05-05 07:59 | 50.99330 | -0.43136 | 6793 ft | 236 kts | 114° |
| 2026-05-05 07:59 | 50.98595 | -0.40805 | 6664 ft | 236 kts | 114° |
| 2026-05-05 07:59 | 50.97861 | -0.38482 | 6524 ft | 235 kts | 114° |
| 2026-05-05 08:00 | 50.97129 | -0.36163 | 6389 ft | 235 kts | 114° |
| 2026-05-05 08:00 | 50.96399 | -0.33845 | 6254 ft | 235 kts | 114° |
| 2026-05-05 08:00 | 50.95668 | -0.31538 | 6117 ft | 234 kts | 114° |
| 2026-05-05 08:00 | 50.94937 | -0.29234 | 5983 ft | 233 kts | 114° |
| 2026-05-05 08:01 | 50.94207 | -0.26938 | 5845 ft | 233 kts | 114° |
| 2026-05-05 08:01 | 50.93478 | -0.24648 | 5703 ft | 233 kts | 114° |
| 2026-05-05 08:01 | 50.92751 | -0.22365 | 5567 ft | 232 kts | 114° |
| 2026-05-05 08:01 | 50.92029 | -0.20084 | 5421 ft | 231 kts | 114° |
| 2026-05-05 08:02 | 50.91310 | -0.17813 | 5297 ft | 230 kts | 114° |
| 2026-05-05 08:02 | 50.90590 | -0.15550 | 5197 ft | 230 kts | 114° |
| 2026-05-05 08:02 | 50.89870 | -0.13289 | 5098 ft | 230 kts | 114° |
| 2026-05-05 08:02 | 50.89150 | -0.11030 | 5002 ft | 229 kts | 114° |
| 2026-05-05 08:03 | 50.88478 | -0.08752 | 4914 ft | 227 kts | 103° |
| 2026-05-05 08:03 | 50.88418 | -0.06322 | 4835 ft | 220 kts | 73° |
| 2026-05-05 08:03 | 50.89099 | -0.04207 | 4761 ft | 215 kts | 45° |
| 2026-05-05 08:03 | 50.90323 | -0.02890 | 4681 ft | 214 kts | 18° |
| 2026-05-05 08:04 | 50.91795 | -0.02652 | 4612 ft | 215 kts | 351° |
| 2026-05-05 08:04 | 50.93169 | -0.03567 | 4541 ft | 219 kts | 323° |
| 2026-05-05 08:04 | 50.94120 | -0.05463 | 4465 ft | 224 kts | 300° |
| 2026-05-05 08:04 | 50.94825 | -0.07672 | 4387 ft | 225 kts | 300° |
| 2026-05-05 08:05 | 50.95532 | -0.09884 | 4314 ft | 225 kts | 300° |
| 2026-05-05 08:05 | 50.96240 | -0.12096 | 4243 ft | 224 kts | 300° |
| 2026-05-05 08:05 | 50.96947 | -0.14301 | 4163 ft | 224 kts | 300° |
| 2026-05-05 08:05 | 50.97653 | -0.16508 | 4085 ft | 224 kts | 300° |
| 2026-05-05 08:06 | 50.98352 | -0.18715 | 3984 ft | 224 kts | 297° |
| 2026-05-05 08:06 | 50.98815 | -0.21091 | 3891 ft | 226 kts | 287° |
| 2026-05-05 08:06 | 50.99198 | -0.23511 | 3793 ft | 226 kts | 287° |
| 2026-05-05 08:06 | 50.99582 | -0.25935 | 3696 ft | 226 kts | 287° |
| 2026-05-05 08:07 | 50.99967 | -0.28349 | 3606 ft | 226 kts | 287° |
| 2026-05-05 08:07 | 51.00352 | -0.30766 | 3515 ft | 226 kts | 287° |
| 2026-05-05 08:07 | 51.00737 | -0.33173 | 3415 ft | 225 kts | 287° |
| 2026-05-05 08:07 | 51.01121 | -0.35577 | 3316 ft | 225 kts | 287° |
| 2026-05-05 08:08 | 51.01501 | -0.37945 | 3216 ft | 224 kts | 287° |
| 2026-05-05 08:08 | 51.01884 | -0.40345 | 3120 ft | 224 kts | 287° |
| 2026-05-05 08:08 | 51.02264 | -0.42747 | 3025 ft | 224 kts | 288° |
| 2026-05-05 08:08 | 51.02645 | -0.45139 | 2995 ft | 223 kts | 287° |
| 2026-05-05 08:09 | 51.03026 | -0.47531 | 3005 ft | 224 kts | 287° |
| 2026-05-05 08:09 | 51.03412 | -0.49929 | 3012 ft | 224 kts | 287° |
| 2026-05-05 08:09 | 51.03826 | -0.52304 | 2995 ft | 222 kts | 296° |
| 2026-05-05 08:09 | 51.04806 | -0.54062 | 2996 ft | 212 kts | 337° |
| 2026-05-05 08:10 | 51.06218 | -0.54373 | 3007 ft | 207 kts | 11° |
| 2026-05-05 08:10 | 51.07632 | -0.54038 | 3011 ft | 202 kts | 7° |
| 2026-05-05 08:10 | 51.08974 | -0.53696 | 2999 ft | 191 kts | 23° |
| 2026-05-05 08:10 | 51.09987 | -0.52425 | 3002 ft | 188 kts | 55° |
| 2026-05-05 08:11 | 51.10431 | -0.50478 | 3013 ft | 190 kts | 75° |
| 2026-05-05 08:11 | 51.10716 | -0.48423 | 3017 ft | 190 kts | 74° |
| 2026-05-05 08:11 | 51.11004 | -0.46356 | 3007 ft | 192 kts | 74° |
| 2026-05-05 08:11 | 51.11291 | -0.44298 | 3003 ft | 189 kts | 75° |
| 2026-05-05 08:12 | 51.11583 | -0.42233 | 2877 ft | 192 kts | 75° |
| 2026-05-05 08:12 | 51.11871 | -0.40169 | 2666 ft | 191 kts | 75° |
| 2026-05-05 08:12 | 51.12161 | -0.38100 | 2402 ft | 193 kts | 75° |
| 2026-05-05 08:12 | 51.12451 | -0.36021 | 2142 ft | 190 kts | 75° |
| 2026-05-05 08:13 | 51.12732 | -0.34009 | 1890 ft | 183 kts | 75° |
| 2026-05-05 08:13 | 51.13003 | -0.32068 | 1665 ft | 176 kts | 76° |
| 2026-05-05 08:13 | 51.13264 | -0.30193 | 1422 ft | 171 kts | 76° |
| 2026-05-05 08:13 | 51.13515 | -0.28393 | 1222 ft | 161 kts | 76° |
| 2026-05-05 08:14 | 51.13748 | -0.26711 | 1004 ft | 151 kts | 75° |
| 2026-05-05 08:14 | 51.13964 | -0.25157 | 805 ft | 139 kts | 76° |
| 2026-05-05 08:14 | 51.14176 | -0.23631 | 595 ft | 138 kts | 76° |
| 2026-05-05 08:14 | 51.14377 | -0.22161 | 389 ft | 134 kts | 76° |
| 2026-05-05 08:15 | 51.14576 | -0.20710 | 261 ft | 134 kts | 75° |
| 2026-05-05 08:15 | 51.14769 | -0.19379 | 209 ft | 101 kts | 77° |
| 2026-05-05 08:15 | 51.14885 | -0.18544 | 206 ft | 57 kts | 77° |
| 2026-05-05 08:15 | 51.14950 | -0.18090 | 209 ft | 26 kts | 71° |
| 2026-05-05 08:16 | 51.15019 | -0.17875 | 209 ft | 18 kts | 52° |
| 2026-05-05 08:16 | 51.15073 | -0.17776 | 207 ft | 1 kts | 38° |
| 2026-05-05 08:16 | 51.15088 | -0.17765 | 206 ft | 7 kts | 18° |
| 2026-05-05 08:16 | 51.15101 | -0.17763 | 211 ft | 0 kts | 3° |
| 2026-05-05 08:17 | 51.15103 | -0.17763 | 206 ft | 2 kts | 2° |
| 2026-05-05 08:18 | 51.15143 | -0.17768 | 205 ft | 10 kts | 353° |
| 2026-05-05 08:18 | 51.15229 | -0.17779 | 205 ft | 14 kts | 12° |
| 2026-05-05 08:18 | 51.15275 | -0.17648 | 210 ft | 15 kts | 77° |
| 2026-05-05 08:18 | 51.15296 | -0.17477 | 209 ft | 17 kts | 82° |
| 2026-05-05 08:19 | 51.15370 | -0.17382 | 210 ft | 17 kts | 347° |
| 2026-05-05 08:19 | 51.15490 | -0.17423 | 211 ft | 18 kts | 348° |
| 2026-05-05 08:19 | 51.15619 | -0.17466 | 205 ft | 20 kts | 348° |
| 2026-05-05 08:19 | 51.15719 | -0.17503 | 205 ft | 12 kts | 349° |
| 2026-05-05 08:20 | 51.15774 | -0.17423 | 205 ft | 13 kts | 80° |
| 2026-05-05 08:20 | 51.15792 | -0.17295 | 205 ft | 10 kts | 77° |
| 2026-05-05 08:20 | 51.15832 | -0.17237 | 205 ft | 8 kts | 354° |
| 2026-05-05 08:20 | 51.15864 | -0.17248 | 211 ft | 0 kts | 347° |
| 2026-05-05 08:22 | 51.15869 | -0.17249 | 208 ft | 2 kts | 347° |
| 2026-05-05 08:22 | 51.15878 | -0.17253 | 214 ft | 0 kts | 347° |